createdAt,value
2018-11-07T00:00:43.594Z,9.20
2018-11-07T00:03:12.687Z,9.10
2018-11-07T00:05:41.704Z,9.10
2018-11-07T00:08:11.028Z,9.10
2018-11-07T00:10:40.368Z,9.10
2018-11-07T00:13:09.595Z,9.00
2018-11-07T00:15:38.864Z,9.00
2018-11-07T00:18:08.097Z,9.00
2018-11-07T00:20:37.718Z,8.90
2018-11-07T00:23:07.152Z,8.90
2018-11-07T00:25:35.923Z,8.90
2018-11-07T00:28:05.167Z,8.90
2018-11-07T00:30:35.211Z,9.00
2018-11-07T00:33:05.417Z,9.00
2018-11-07T00:35:34.839Z,8.90
2018-11-07T00:38:03.829Z,9.00
2018-11-07T00:40:33.324Z,9.00
2018-11-07T00:43:01.988Z,9.00
2018-11-07T00:45:30.580Z,9.00
2018-11-07T00:47:59.113Z,9.00
2018-11-07T00:50:27.946Z,9.10
2018-11-07T00:52:56.479Z,9.00
2018-11-07T00:55:25.190Z,9.10
2018-11-07T00:57:54.513Z,9.20
2018-11-07T01:00:23.039Z,9.30
2018-11-07T01:02:51.798Z,9.30
2018-11-07T01:05:21.450Z,9.30
2018-11-07T01:07:51.558Z,9.20
2018-11-07T01:10:21.450Z,9.20
2018-11-07T01:12:51.963Z,9.30
2018-11-07T01:15:26.782Z,9.20
2018-11-07T01:17:56.224Z,9.20
2018-11-07T01:20:24.409Z,9.30
2018-11-07T01:22:53.038Z,9.30
2018-11-07T01:25:21.646Z,9.30
2018-11-07T01:27:50.047Z,9.30
2018-11-07T01:30:18.247Z,9.40
2018-11-07T01:32:46.622Z,9.40
2018-11-07T01:35:14.834Z,9.40
2018-11-07T01:37:43.248Z,9.40
2018-11-07T01:40:13.065Z,9.40
2018-11-07T01:42:41.562Z,9.40
2018-11-07T01:45:10.841Z,9.30
2018-11-07T01:47:39.074Z,9.30
2018-11-07T01:50:09.111Z,9.10
2018-11-07T01:52:37.330Z,9.00
2018-11-07T01:55:06.140Z,9.00
2018-11-07T01:57:34.496Z,8.90
2018-11-07T02:00:02.674Z,8.80
2018-11-07T02:02:30.886Z,8.60
2018-11-07T02:04:59.314Z,8.60
2018-11-07T02:07:27.502Z,8.60
2018-11-07T02:09:55.944Z,8.40
2018-11-07T02:12:24.109Z,8.30
2018-11-07T02:14:52.275Z,8.30
2018-11-07T02:17:20.463Z,8.30
2018-11-07T02:19:48.626Z,8.20
2018-11-07T02:22:16.813Z,8.10
2018-11-07T02:24:45.010Z,8.20
2018-11-07T02:27:13.213Z,8.20
2018-11-07T02:29:41.405Z,8.20
2018-11-07T02:32:09.642Z,8.20
2018-11-07T02:34:37.858Z,8.10
2018-11-07T02:37:06.115Z,8.20
2018-11-07T02:39:34.283Z,8.30
2018-11-07T02:42:02.584Z,8.30
2018-11-07T02:44:30.650Z,8.30
2018-11-07T02:46:58.841Z,8.30
2018-11-07T02:49:27.005Z,8.30
2018-11-07T02:51:55.198Z,8.30
2018-11-07T02:54:23.409Z,8.40
2018-11-07T02:56:51.608Z,8.40
2018-11-07T02:59:19.785Z,8.50
2018-11-07T03:01:47.981Z,8.50
2018-11-07T03:04:16.155Z,8.50
2018-11-07T03:06:44.558Z,8.50
2018-11-07T03:09:12.731Z,8.50
2018-11-07T03:11:41.115Z,8.60
2018-11-07T03:14:09.712Z,8.60
2018-11-07T03:16:38.357Z,8.70
2018-11-07T03:19:06.938Z,8.60
2018-11-07T03:21:35.128Z,8.60
2018-11-07T03:24:03.306Z,8.60
2018-11-07T03:26:31.513Z,8.70
2018-11-07T03:28:59.688Z,8.70
2018-11-07T03:31:27.914Z,8.70
2018-11-07T03:33:56.142Z,8.70
2018-11-07T03:36:24.381Z,8.70
2018-11-07T03:38:52.567Z,8.70
2018-11-07T03:41:20.985Z,8.70
2018-11-07T03:43:49.399Z,8.70
2018-11-07T03:46:17.979Z,8.60
2018-11-07T03:48:46.148Z,8.60
2018-11-07T03:51:14.326Z,8.50
2018-11-07T03:53:42.485Z,8.50
2018-11-07T03:56:10.698Z,8.50
2018-11-07T03:58:38.956Z,8.50
2018-11-07T04:01:07.154Z,8.60
2018-11-07T04:03:35.565Z,8.70
2018-11-07T04:06:03.770Z,8.70
2018-11-07T04:08:31.933Z,8.70
2018-11-07T04:11:00.157Z,8.70
2018-11-07T04:13:28.429Z,8.70
2018-11-07T04:15:56.622Z,8.60
2018-11-07T04:18:24.782Z,8.60
2018-11-07T04:20:53.186Z,8.60
2018-11-07T04:23:21.394Z,8.60
2018-11-07T04:25:49.574Z,8.50
2018-11-07T04:28:17.965Z,8.50
2018-11-07T04:30:46.163Z,8.50
2018-11-07T04:33:14.326Z,8.50
2018-11-07T04:35:42.524Z,8.40
2018-11-07T04:38:10.746Z,8.40
2018-11-07T04:40:38.921Z,8.30
2018-11-07T04:43:07.246Z,8.10
2018-11-07T04:45:35.681Z,8.20
2018-11-07T04:48:04.108Z,8.10
2018-11-07T04:50:32.330Z,8.20
2018-11-07T04:53:00.513Z,8.20
2018-11-07T04:55:28.714Z,8.20
2018-11-07T04:57:56.885Z,8.20
2018-11-07T05:00:25.251Z,8.10
2018-11-07T05:02:53.281Z,8.00
2018-11-07T05:05:21.763Z,8.00
2018-11-07T05:07:51.175Z,8.00
2018-11-07T05:10:20.903Z,8.00
2018-11-07T05:12:49.090Z,8.10
2018-11-07T05:15:17.307Z,8.10
2018-11-07T05:17:45.718Z,8.20
2018-11-07T05:20:13.941Z,8.20
2018-11-07T05:22:42.122Z,8.20
2018-11-07T05:25:11.001Z,8.20
2018-11-07T05:27:39.205Z,8.20
2018-11-07T05:30:08.430Z,8.30
2018-11-07T05:32:36.635Z,8.30
2018-11-07T05:35:05.782Z,8.10
2018-11-07T05:37:34.405Z,8.20
2018-11-07T05:40:02.815Z,8.20
2018-11-07T05:42:31.752Z,8.10
2018-11-07T05:45:01.155Z,8.10
2018-11-07T05:47:29.378Z,8.20
2018-11-07T05:49:58.032Z,8.20
2018-11-07T05:52:27.161Z,8.20
2018-11-07T05:54:55.591Z,8.20
2018-11-07T05:57:24.131Z,8.20
2018-11-07T05:59:52.639Z,8.20
2018-11-07T06:02:21.058Z,8.30
2018-11-07T06:04:49.386Z,8.30
2018-11-07T06:07:17.655Z,8.30
2018-11-07T06:09:46.468Z,8.20
2018-11-07T06:12:15.287Z,8.20
2018-11-07T06:14:43.566Z,8.20
2018-11-07T06:17:12.094Z,8.30
2018-11-07T06:19:40.734Z,8.30
2018-11-07T06:22:09.076Z,8.40
2018-11-07T06:24:38.142Z,8.40
2018-11-07T06:27:06.513Z,8.40
2018-11-07T06:29:34.883Z,8.50
2018-11-07T06:32:03.234Z,8.50
2018-11-07T06:34:31.744Z,8.40
2018-11-07T06:37:00.036Z,8.40
2018-11-07T06:39:28.266Z,8.40
2018-11-07T06:41:56.845Z,8.40
2018-11-07T06:44:25.520Z,8.40
2018-11-07T06:46:53.953Z,8.40
2018-11-07T06:49:22.688Z,8.50
2018-11-07T06:51:51.561Z,8.50
2018-11-07T06:54:20.004Z,8.50
2018-11-07T06:56:48.190Z,8.40
2018-11-07T06:59:16.479Z,8.40
2018-11-07T07:01:44.684Z,8.40
2018-11-07T07:04:13.151Z,8.50
2018-11-07T07:06:41.345Z,8.40
2018-11-07T07:09:10.179Z,8.40
2018-11-07T07:11:38.551Z,8.40
2018-11-07T07:14:06.763Z,8.40
2018-11-07T07:16:35.016Z,8.50
2018-11-07T07:19:03.288Z,8.50
2018-11-07T07:21:31.555Z,8.50
2018-11-07T07:23:59.774Z,8.40
2018-11-07T07:26:27.984Z,8.40
2018-11-07T07:28:56.239Z,8.50
2018-11-07T07:31:24.438Z,8.40
2018-11-07T07:33:52.675Z,8.40
2018-11-07T07:36:21.102Z,8.20
2018-11-07T07:38:49.333Z,8.20
2018-11-07T07:41:17.577Z,8.10
2018-11-07T07:43:46.010Z,8.10
2018-11-07T07:46:14.238Z,8.30
2018-11-07T07:48:42.441Z,8.30
2018-11-07T07:51:10.651Z,8.40
2018-11-07T07:53:38.891Z,8.40
2018-11-07T07:56:07.315Z,8.50
2018-11-07T07:58:36.039Z,8.50
2018-11-07T08:01:04.275Z,8.50
2018-11-07T08:03:32.568Z,8.60
2018-11-07T08:06:00.898Z,8.70
2018-11-07T08:08:29.115Z,8.80
2018-11-07T08:10:57.325Z,8.90
2018-11-07T08:13:25.574Z,9.00
2018-11-07T08:15:53.799Z,9.10
2018-11-07T08:18:22.010Z,9.20
2018-11-07T08:20:50.284Z,9.30
2018-11-07T08:23:18.519Z,9.40
2018-11-07T08:25:46.790Z,9.50
2018-11-07T08:28:15.019Z,9.50
2018-11-07T08:30:43.739Z,9.60
2018-11-07T08:33:12.052Z,9.70
2018-11-07T08:35:40.475Z,9.70
2018-11-07T08:38:08.707Z,9.80
2018-11-07T08:40:37.184Z,9.80
2018-11-07T08:43:05.440Z,9.80
2018-11-07T08:45:33.748Z,9.90
2018-11-07T08:48:02.061Z,10.00
2018-11-07T08:50:30.765Z,10.00
2018-11-07T08:52:59.111Z,10.10
2018-11-07T08:55:27.674Z,10.20
2018-11-07T08:57:56.289Z,10.20
2018-11-07T09:00:24.916Z,10.30
2018-11-07T09:02:53.170Z,10.50
2018-11-07T09:05:22.290Z,10.50
2018-11-07T09:07:50.570Z,10.60
2018-11-07T09:10:20.304Z,10.70
2018-11-07T09:12:48.551Z,10.80
2018-11-07T09:15:18.312Z,10.80
2018-11-07T09:17:46.582Z,10.90
2018-11-07T09:20:16.550Z,10.90
2018-11-07T09:22:44.943Z,10.90
2018-11-07T09:25:13.946Z,11.00
2018-11-07T09:27:42.437Z,11.10
2018-11-07T09:30:12.455Z,11.20
2018-11-07T09:32:40.757Z,11.30
2018-11-07T09:35:10.302Z,11.30
2018-11-07T09:37:38.569Z,11.40
2018-11-07T09:40:08.836Z,11.40
2018-11-07T09:42:37.709Z,11.30
2018-11-07T09:45:07.105Z,11.40
2018-11-07T09:47:35.425Z,11.40
2018-11-07T09:50:03.795Z,11.40
2018-11-07T09:52:32.223Z,11.50
2018-11-07T09:55:00.447Z,11.50
2018-11-07T09:57:29.062Z,11.60
2018-11-07T09:59:57.406Z,11.60
2018-11-07T10:02:25.750Z,11.60
2018-11-07T10:04:54.055Z,11.60
2018-11-07T10:07:22.291Z,11.50
2018-11-07T10:09:50.510Z,11.50
2018-11-07T10:12:18.720Z,11.60
2018-11-07T10:14:47.163Z,11.70
2018-11-07T10:17:15.458Z,11.70
2018-11-07T10:19:43.813Z,11.80
2018-11-07T10:22:12.067Z,11.70
2018-11-07T10:24:40.546Z,11.70
2018-11-07T10:27:08.875Z,11.80
2018-11-07T10:29:37.308Z,11.90
2018-11-07T10:32:05.647Z,11.90
2018-11-07T10:34:34.036Z,11.90
2018-11-07T10:37:02.174Z,11.90
2018-11-07T10:39:30.672Z,11.90
2018-11-07T10:41:59.003Z,12.00
2018-11-07T10:44:27.467Z,12.00
2018-11-07T10:46:56.312Z,12.10
2018-11-07T10:49:24.754Z,12.10
2018-11-07T10:51:53.073Z,12.20
2018-11-07T10:54:21.202Z,12.20
2018-11-07T10:56:49.533Z,12.30
2018-11-07T10:59:17.904Z,12.30
2018-11-07T11:01:51.425Z,12.30
2018-11-07T11:04:19.615Z,12.30
2018-11-07T11:06:47.838Z,12.40
2018-11-07T11:09:16.041Z,12.40
2018-11-07T11:11:44.254Z,12.40
2018-11-07T11:14:12.458Z,12.40
2018-11-07T11:16:41.203Z,12.40
2018-11-07T11:19:09.453Z,12.40
2018-11-07T11:21:37.759Z,12.50
2018-11-07T11:24:06.227Z,12.50
2018-11-07T11:26:34.788Z,12.60
2018-11-07T11:29:03.221Z,12.60
2018-11-07T11:31:31.999Z,12.60
2018-11-07T11:34:00.286Z,12.70
2018-11-07T11:36:28.422Z,12.70
2018-11-07T11:38:56.627Z,12.70
2018-11-07T11:41:24.870Z,12.80
2018-11-07T11:43:53.099Z,12.80
2018-11-07T11:46:21.350Z,12.80
2018-11-07T11:48:49.602Z,12.90
2018-11-07T11:51:17.916Z,12.90
2018-11-07T11:53:46.033Z,12.90
2018-11-07T11:56:14.449Z,12.90
2018-11-07T11:58:42.677Z,12.90
2018-11-07T12:01:10.881Z,12.90
2018-11-07T12:03:39.063Z,12.90
2018-11-07T12:06:07.475Z,12.90
2018-11-07T12:08:35.734Z,13.00
2018-11-07T12:11:05.254Z,13.10
2018-11-07T12:13:33.693Z,13.10
2018-11-07T12:16:02.105Z,13.20
2018-11-07T12:18:30.329Z,13.20
2018-11-07T12:20:58.532Z,13.20
2018-11-07T12:23:26.743Z,13.30
2018-11-07T12:25:55.141Z,13.20
2018-11-07T12:28:23.354Z,13.20
2018-11-07T12:30:51.566Z,13.30
2018-11-07T12:33:19.747Z,13.30
2018-11-07T12:35:47.973Z,13.30
2018-11-07T12:38:16.195Z,13.40
2018-11-07T12:40:44.574Z,13.40
2018-11-07T12:43:12.745Z,13.40
2018-11-07T12:45:41.590Z,13.50
2018-11-07T12:48:09.823Z,13.60
2018-11-07T12:50:38.015Z,13.50
2018-11-07T12:53:06.386Z,13.60
2018-11-07T12:55:37.805Z,13.60
2018-11-07T12:58:06.424Z,13.70
2018-11-07T13:00:34.619Z,13.70
2018-11-07T13:03:02.958Z,13.70
2018-11-07T13:05:31.338Z,13.70
2018-11-07T13:07:59.815Z,13.60
2018-11-07T13:10:28.187Z,13.60
2018-11-07T13:12:56.377Z,13.60
2018-11-07T13:15:24.706Z,13.70
2018-11-07T13:17:53.403Z,13.80
2018-11-07T13:20:23.202Z,13.80
2018-11-07T13:22:52.609Z,13.80
2018-11-07T13:25:21.316Z,13.70
2018-11-07T13:27:49.515Z,13.70
2018-11-07T13:30:19.224Z,13.70
2018-11-07T13:32:47.443Z,13.70
2018-11-07T13:35:16.421Z,13.70
2018-11-07T13:37:45.400Z,13.60
2018-11-07T13:40:16.502Z,13.70
2018-11-07T13:42:44.678Z,13.70
2018-11-07T13:45:14.308Z,13.80
2018-11-07T13:47:43.670Z,13.80
2018-11-07T13:50:13.111Z,13.80
2018-11-07T13:52:41.362Z,13.90
2018-11-07T13:55:10.601Z,13.80
2018-11-07T13:57:39.562Z,13.90
2018-11-07T14:00:10.807Z,13.90
2018-11-07T14:02:39.011Z,13.80
2018-11-07T14:05:08.548Z,13.80
2018-11-07T14:07:36.942Z,13.70
2018-11-07T14:10:07.403Z,13.60
2018-11-07T14:12:35.605Z,13.60
2018-11-07T14:15:04.358Z,13.60
2018-11-07T14:17:32.690Z,13.70
2018-11-07T14:20:00.879Z,13.70
2018-11-07T14:22:29.127Z,13.70
2018-11-07T14:24:57.342Z,13.70
2018-11-07T14:27:25.592Z,13.70
2018-11-07T14:29:54.210Z,13.70
2018-11-07T14:32:22.534Z,13.70
2018-11-07T14:34:50.814Z,13.60
2018-11-07T14:37:19.069Z,13.60
2018-11-07T14:39:47.263Z,13.50
2018-11-07T14:42:15.471Z,13.50
2018-11-07T14:44:43.667Z,13.40
2018-11-07T14:47:12.023Z,13.20
2018-11-07T14:49:40.105Z,13.20
2018-11-07T14:52:08.306Z,13.70
2018-11-07T14:54:36.562Z,14.10
2018-11-07T14:57:04.895Z,14.40
2018-11-07T14:59:33.075Z,14.40
2018-11-07T15:02:01.287Z,14.10
2018-11-07T15:04:29.498Z,13.60
2018-11-07T15:06:57.731Z,13.10
2018-11-07T15:09:25.923Z,12.60
2018-11-07T15:11:54.207Z,12.20
2018-11-07T15:14:22.351Z,12.00
2018-11-07T15:16:50.594Z,11.80
2018-11-07T15:19:18.898Z,11.70
2018-11-07T15:21:47.124Z,11.50
2018-11-07T15:24:15.330Z,11.40
2018-11-07T15:26:43.538Z,11.30
2018-11-07T15:29:11.752Z,11.20
2018-11-07T15:31:39.967Z,11.10
2018-11-07T15:34:08.394Z,11.00
2018-11-07T15:36:36.685Z,11.00
2018-11-07T15:39:07.675Z,11.00
2018-11-07T15:41:36.218Z,10.90
2018-11-07T15:44:04.515Z,10.80
2018-11-07T15:46:32.759Z,10.80
2018-11-07T15:49:00.933Z,10.70
2018-11-07T15:51:35.278Z,10.70
2018-11-07T15:54:04.037Z,10.80
2018-11-07T15:56:32.450Z,10.70
2018-11-07T15:59:01.469Z,10.70
2018-11-07T16:01:29.683Z,10.60
2018-11-07T16:03:59.224Z,10.60
2018-11-07T16:06:27.781Z,10.50
2018-11-07T16:08:57.415Z,10.40
2018-11-07T16:11:26.594Z,10.40
2018-11-07T16:13:55.164Z,10.40
2018-11-07T16:16:23.307Z,10.30
2018-11-07T16:18:51.590Z,10.30
2018-11-07T16:21:19.778Z,10.10
2018-11-07T16:23:48.280Z,10.10
2018-11-07T16:26:16.418Z,10.20
2018-11-07T16:28:44.755Z,10.20
2018-11-07T16:31:12.886Z,10.20
2018-11-07T16:33:41.532Z,10.10
2018-11-07T16:36:09.808Z,10.10
2018-11-07T16:38:38.306Z,10.00
2018-11-07T16:41:06.789Z,10.00
2018-11-07T16:43:34.969Z,10.00
2018-11-07T16:46:03.222Z,10.00
2018-11-07T16:48:31.461Z,9.90
2018-11-07T16:50:59.639Z,9.90
2018-11-07T16:53:27.876Z,9.90
2018-11-07T16:55:56.073Z,9.90
2018-11-07T16:58:24.315Z,9.90
2018-11-07T17:00:52.559Z,9.90
2018-11-07T17:03:20.801Z,9.90
2018-11-07T17:05:48.962Z,9.90
2018-11-07T17:08:17.161Z,9.70
2018-11-07T17:10:45.508Z,9.70
2018-11-07T17:13:13.994Z,9.80
2018-11-07T17:15:42.215Z,9.80
2018-11-07T17:18:10.412Z,9.80
2018-11-07T17:20:38.702Z,9.80
2018-11-07T17:23:06.867Z,9.90
2018-11-07T17:25:35.021Z,9.90
2018-11-07T17:28:03.348Z,9.90
2018-11-07T17:30:31.545Z,9.90
2018-11-07T17:32:59.804Z,9.90
2018-11-07T17:35:28.119Z,10.00
2018-11-07T17:37:56.338Z,10.00
2018-11-07T17:40:24.582Z,10.00
2018-11-07T17:42:53.223Z,10.00
2018-11-07T17:45:22.771Z,10.00
2018-11-07T17:47:51.866Z,9.80
2018-11-07T17:50:20.763Z,10.10
2018-11-07T17:52:49.362Z,10.00
2018-11-07T17:55:18.235Z,10.00
2018-11-07T17:57:46.442Z,10.10
2018-11-07T18:00:15.935Z,10.10
2018-11-07T18:02:44.310Z,10.10
2018-11-07T18:05:12.517Z,10.00
2018-11-07T18:07:40.853Z,10.00
2018-11-07T18:10:11.594Z,10.00
2018-11-07T18:12:39.769Z,10.10
2018-11-07T18:15:08.299Z,10.10
2018-11-07T18:17:36.494Z,10.00
2018-11-07T18:20:05.938Z,10.00
2018-11-07T18:22:40.230Z,10.00
2018-11-07T18:25:11.022Z,10.20
2018-11-07T18:27:39.574Z,10.30
2018-11-07T18:30:09.314Z,10.40
2018-11-07T18:32:37.625Z,10.50
2018-11-07T18:35:07.949Z,10.50
2018-11-07T18:37:36.146Z,10.50
2018-11-07T18:40:06.152Z,10.50
2018-11-07T18:42:35.419Z,10.40
2018-11-07T18:45:04.006Z,10.30
2018-11-07T18:47:32.249Z,10.30
2018-11-07T18:50:01.701Z,10.40
2018-11-07T18:52:29.844Z,10.40
2018-11-07T18:54:58.070Z,10.30
2018-11-07T18:57:26.278Z,10.30
2018-11-07T18:59:54.535Z,10.30
2018-11-07T19:02:22.885Z,10.30
2018-11-07T19:04:51.232Z,10.40
2018-11-07T19:07:19.499Z,10.40
2018-11-07T19:09:48.024Z,10.40
2018-11-07T19:12:17.278Z,10.40
2018-11-07T19:14:45.572Z,10.40
2018-11-07T19:17:13.791Z,10.50
2018-11-07T19:19:42.069Z,10.40
2018-11-07T19:22:10.321Z,10.40
2018-11-07T19:24:38.560Z,10.40
2018-11-07T19:27:06.761Z,10.50
2018-11-07T19:29:35.086Z,10.40
2018-11-07T19:32:03.499Z,10.40
2018-11-07T19:34:31.780Z,10.40
2018-11-07T19:37:00.323Z,10.40
2018-11-07T19:39:28.588Z,10.40
2018-11-07T19:41:57.174Z,10.50
2018-11-07T19:44:25.433Z,10.50
2018-11-07T19:46:53.703Z,10.50
2018-11-07T19:49:21.865Z,10.60
2018-11-07T19:51:50.170Z,10.60
2018-11-07T19:54:18.701Z,10.60
2018-11-07T19:56:46.946Z,10.60
2018-11-07T19:59:15.230Z,10.60
2018-11-07T20:01:43.463Z,10.70
2018-11-07T20:04:11.667Z,10.70
2018-11-07T20:06:39.849Z,10.70
2018-11-07T20:09:09.034Z,10.80
2018-11-07T20:11:37.570Z,10.80
2018-11-07T20:14:05.820Z,10.80
2018-11-07T20:16:34.132Z,10.80
2018-11-07T20:19:02.365Z,10.90
2018-11-07T20:21:30.563Z,10.80
2018-11-07T20:23:58.781Z,10.80
2018-11-07T20:26:29.801Z,10.80
2018-11-07T20:28:58.020Z,10.80
2018-11-07T20:31:26.226Z,10.80
2018-11-07T20:33:54.616Z,10.90
2018-11-07T20:36:22.848Z,10.90
2018-11-07T20:38:51.038Z,10.90
2018-11-07T20:45:48.814Z,10.90
2018-11-07T20:48:17.113Z,10.80
2018-11-07T20:50:45.360Z,10.80
2018-11-07T20:53:13.580Z,10.80
2018-11-07T20:55:42.039Z,10.80
2018-11-07T21:01:01.395Z,10.70
2018-11-07T21:03:30.227Z,10.70
2018-11-07T21:05:58.557Z,10.70
2018-11-07T21:08:27.024Z,10.70
2018-11-07T21:10:55.511Z,10.70
2018-11-07T21:13:23.889Z,10.70
2018-11-07T21:15:52.604Z,10.60
2018-11-07T21:18:20.847Z,10.60
2018-11-07T21:20:49.086Z,10.60
2018-11-07T21:23:17.579Z,10.60
2018-11-07T21:25:45.801Z,10.50
2018-11-07T21:28:14.523Z,10.40
2018-11-07T21:30:42.771Z,10.40
2018-11-07T21:33:10.981Z,10.40
2018-11-07T21:35:39.190Z,10.40
2018-11-07T21:42:36.295Z,10.30
2018-11-07T21:45:04.962Z,10.40
2018-11-07T21:47:33.142Z,10.40
2018-11-07T21:50:01.342Z,10.30
2018-11-07T21:52:29.558Z,10.30
2018-11-07T21:54:57.968Z,10.30
2018-11-07T21:57:26.105Z,10.30
2018-11-07T21:59:54.281Z,10.20
2018-11-07T22:02:22.494Z,10.20
2018-11-07T22:04:50.661Z,10.20
2018-11-07T22:07:19.057Z,10.10
2018-11-07T22:09:47.453Z,10.00
2018-11-07T22:12:15.662Z,10.00
2018-11-07T22:14:44.201Z,9.90
2018-11-07T22:17:12.421Z,10.00
2018-11-07T22:19:41.735Z,10.00
2018-11-07T22:22:09.921Z,10.00
2018-11-07T22:24:38.117Z,10.10
2018-11-07T22:27:06.562Z,10.10
2018-11-07T22:29:34.787Z,10.10
2018-11-07T22:32:02.958Z,10.10
2018-11-07T22:34:31.468Z,10.10
2018-11-07T22:36:59.649Z,10.10
2018-11-07T22:39:28.191Z,10.10
2018-11-07T22:41:56.377Z,10.10
2018-11-07T22:44:43.618Z,10.20
2018-11-07T22:47:12.045Z,10.20
2018-11-07T22:49:40.247Z,10.20
2018-11-07T22:52:08.469Z,10.20
2018-11-07T22:54:36.666Z,10.10
2018-11-07T22:57:04.883Z,10.20
2018-11-07T22:59:33.315Z,10.20
2018-11-07T23:02:01.752Z,10.30
2018-11-07T23:04:29.945Z,10.30
2018-11-07T23:06:58.368Z,10.30
2018-11-07T23:09:26.798Z,10.30
2018-11-07T23:11:55.224Z,10.30
2018-11-07T23:14:23.423Z,10.30
2018-11-07T23:16:51.622Z,10.30
2018-11-07T23:19:20.289Z,10.30
2018-11-07T23:21:48.497Z,10.30
2018-11-07T23:24:16.701Z,10.40
2018-11-07T23:26:44.902Z,10.30
2018-11-07T23:29:13.099Z,10.40
2018-11-07T23:31:41.324Z,10.40
2018-11-07T23:34:09.523Z,10.40
2018-11-07T23:36:37.723Z,10.40
2018-11-07T23:39:08.039Z,10.40
2018-11-07T23:41:36.456Z,10.40
2018-11-07T23:44:04.668Z,10.40
2018-11-07T23:46:32.861Z,10.50
2018-11-07T23:49:01.066Z,10.40
2018-11-07T23:51:29.270Z,10.40
2018-11-07T23:53:57.726Z,10.50
2018-11-07T23:56:25.919Z,10.40
2018-11-07T23:58:54.138Z,10.50
